Time;durP1;ratioP1;P1;durP2;ratioP2;P2;SDS_P1;SDS_P2;PMS_P1;PMS_P2;Temp;Humidity;BMP_temperature;BMP_pressure;BME280_temperature;BME280_humidity;BME280_pressure;Samples;Min_cycle;Max_cycle;Signal;HPM_P1;HPM_P2
2022/08/27 00:01:33;;;;;;;0.57;0.30;;;23.20;99.90;;;;;;5030678;28;20087;-71
2022/08/27 00:03:59;;;;;;;0.60;0.57;;;23.10;99.90;;;;;;5030263;28;20025;-71
2022/08/27 00:06:26;;;;;;;0.45;0.38;;;23.00;99.90;;;;;;5030630;28;20466;-71
2022/08/27 00:08:52;;;;;;;0.85;0.80;;;22.90;99.90;;;;;;5029613;28;20029;-71
2022/08/27 00:11:21;;;;;;;0.50;0.45;;;22.90;99.90;;;;;;5030691;28;20021;-71
2022/08/27 00:13:47;;;;;;;0.45;0.45;;;22.70;99.90;;;;;;5030789;28;20049;-71
2022/08/27 00:16:16;;;;;;;0.68;0.68;;;22.70;99.90;;;;;;5030965;28;20037;-71
2022/08/27 00:18:44;;;;;;;1.23;0.68;;;22.70;99.90;;;;;;5013106;28;20052;-71
2022/08/27 00:21:11;;;;;;;0.43;0.43;;;22.70;99.90;;;;;;5030657;28;20025;-71
2022/08/27 00:23:38;;;;;;;0.20;0.20;;;22.70;99.90;;;;;;5012934;28;20095;-71
2022/08/27 00:26:06;;;;;;;0.15;0.15;;;22.70;99.90;;;;;;5013167;28;20706;-72
2022/08/27 00:28:33;;;;;;;0.75;0.60;;;22.70;99.90;;;;;;5030684;28;20462;-71
2022/08/27 00:30:59;;;;;;;0.90;0.68;;;22.70;99.90;;;;;;5030503;28;20095;-71
2022/08/27 00:33:26;;;;;;;0.10;0.10;;;22.50;99.90;;;;;;4996455;28;20075;-72
2022/08/27 00:35:52;;;;;;;0.32;0.32;;;22.50;99.90;;;;;;5029392;28;20112;-72
2022/08/27 00:38:20;;;;;;;1.20;0.85;;;22.50;99.90;;;;;;5030479;28;20041;-72
2022/08/27 00:40:47;;;;;;;1.35;1.02;;;22.50;99.90;;;;;;5030452;28;20037;-72
2022/08/27 00:43:23;;;;;;;11.38;1.30;;;22.50;99.90;;;;;;5030444;28;20398;-72
2022/08/27 00:45:52;;;;;;;1.20;0.90;;;22.50;99.90;;;;;;5030691;28;20044;-72
2022/08/27 00:48:23;;;;;;;0.20;0.13;;;22.50;99.90;;;;;;5030544;28;20060;-72
2022/08/27 00:50:53;;;;;;;0.63;0.63;;;22.50;99.90;;;;;;4996946;28;20370;-72
2022/08/27 00:53:24;;;;;;;0.60;0.60;;;22.50;99.90;;;;;;5030575;28;20061;-72
2022/08/27 00:55:57;;;;;;;0.00;0.00;;;22.50;99.90;;;;;;5030508;28;20056;-72
2022/08/27 00:58:35;;;;;;;0.22;0.22;;;22.60;99.90;;;;;;5013302;28;20034;-71
2022/08/27 01:01:05;;;;;;;1.27;0.82;;;22.60;99.90;;;;;;5013537;28;20622;-72
2022/08/27 01:03:33;;;;;;;0.17;0.17;;;22.60;99.90;;;;;;5014647;28;20025;-72
2022/08/27 01:06:00;;;;;;;0.43;0.32;;;22.60;99.90;;;;;;5011054;28;20033;-72
2022/08/27 01:08:33;;;;;;;0.43;0.43;;;22.70;99.90;;;;;;5032490;28;20057;-71
2022/08/27 01:10:59;;;;;;;3.72;1.98;;;22.70;99.90;;;;;;5016594;28;20064;-72
2022/08/27 01:13:30;;;;;;;1.30;0.68;;;22.70;99.90;;;;;;5016131;28;20116;-72
2022/08/27 01:15:58;;;;;;;0.32;0.32;;;22.60;99.90;;;;;;5016658;28;20029;-71
2022/08/27 01:18:31;;;;;;;0.57;0.50;;;22.60;99.90;;;;;;5015972;28;20124;-71
2022/08/27 01:21:36;;;;;;;0.35;0.35;;;22.50;99.90;;;;;;5000165;28;20041;-71
2022/08/27 01:24:34;;;;;;;0.20;0.20;;;22.50;99.90;;;;;;5014136;28;20084;-71
2022/08/27 01:27:05;;;;;;;0.40;0.40;;;22.60;99.90;;;;;;5018844;28;20033;-72
2022/08/27 01:29:32;;;;;;;0.68;0.68;;;22.50;99.90;;;;;;5016397;28;20378;-71
2022/08/27 01:32:18;;;;;;;0.88;0.63;;;22.50;99.90;;;;;;5033595;28;20029;-72
2022/08/27 01:34:45;;;;;;;0.40;0.40;;;22.50;99.90;;;;;;5016405;28;20108;-71
2022/08/27 01:37:13;;;;;;;4.68;0.85;;;22.50;99.90;;;;;;5015851;28;20030;-71
2022/08/27 01:39:40;;;;;;;2.47;1.52;;;22.40;99.90;;;;;;5033516;28;20622;-72
2022/08/27 01:42:35;;;;;;;0.55;0.47;;;22.40;99.90;;;;;;5015558;28;20128;-71
2022/08/27 01:45:23;;;;;;;0.25;0.25;;;22.50;99.90;;;;;;5028079;28;20045;-72
2022/08/27 01:47:49;;;;;;;1.50;0.85;;;22.50;99.90;;;;;;5033299;28;20026;-72
2022/08/27 01:50:22;;;;;;;0.52;0.52;;;22.50;99.90;;;;;;5033494;28;20088;-72
2022/08/27 01:52:48;;;;;;;0.40;0.38;;;22.50;99.90;;;;;;4999369;28;20073;-72
2022/08/27 01:55:20;;;;;;;0.35;0.35;;;22.60;99.90;;;;;;5033187;28;20034;-72
2022/08/27 01:57:46;;;;;;;1.17;0.77;;;22.60;99.90;;;;;;5033192;28;20033;-71
2022/08/27 02:00:28;;;;;;;0.65;0.65;;;22.70;99.90;;;;;;5032916;28;20029;-72
2022/08/27 02:02:56;;;;;;;0.00;0.00;;;22.70;99.90;;;;;;5032721;28;20033;-72
2022/08/27 02:05:22;;;;;;;0.30;0.30;;;22.70;99.90;;;;;;5033005;28;20037;-72
2022/08/27 02:07:48;;;;;;;0.63;0.63;;;22.70;99.90;;;;;;5032921;28;20033;-72
2022/08/27 02:10:29;;;;;;;0.93;0.82;;;22.60;99.90;;;;;;5015161;28;20486;-72
2022/08/27 02:12:54;;;;;;;1.27;1.23;;;22.60;99.90;;;;;;5032701;28;20402;-72
2022/08/27 02:15:23;;;;;;;0.60;0.60;;;22.40;99.90;;;;;;5031479;28;20045;-72
2022/08/27 02:17:49;;;;;;;0.43;0.35;;;22.40;99.90;;;;;;5022620;23;20074;-67
2022/08/27 02:20:17;;;;;;;2.75;1.33;;;22.40;99.90;;;;;;5001606;28;20479;-69
2022/08/27 02:22:44;;;;;;;2.67;0.75;;;22.30;99.90;;;;;;4993142;28;20039;-69
2022/08/27 02:25:12;;;;;;;0.22;0.22;;;22.30;99.90;;;;;;4991870;28;20034;-69
2022/08/27 02:27:41;;;;;;;0.00;0.00;;;22.30;99.90;;;;;;4991755;28;20022;-70
2022/08/27 02:30:10;;;;;;;1.02;0.52;;;22.30;99.90;;;;;;4993181;28;20030;-69
2022/08/27 02:32:36;;;;;;;3.33;2.00;;;22.40;99.90;;;;;;4975657;28;20061;-70
2022/08/27 02:35:03;;;;;;;3.65;1.27;;;22.30;99.90;;;;;;4991998;28;20057;-70
2022/08/27 02:37:29;;;;;;;0.82;0.65;;;22.30;99.90;;;;;;4992775;28;20479;-70
2022/08/27 02:39:55;;;;;;;0.20;0.20;;;22.20;99.90;;;;;;4975614;28;20049;-69
2022/08/27 02:42:22;;;;;;;5.90;2.75;;;22.20;99.90;;;;;;4975503;28;20073;-70
2022/08/27 02:44:47;;;;;;;0.77;0.77;;;22.10;99.90;;;;;;4975604;28;20072;-69
2022/08/27 02:47:15;;;;;;;0.30;0.30;;;22.10;99.90;;;;;;4975619;28;20023;-69
2022/08/27 02:49:42;;;;;;;0.68;0.68;;;22.20;99.90;;;;;;4975369;28;20030;-69
2022/08/27 02:52:08;;;;;;;0.28;0.28;;;22.20;99.90;;;;;;4975378;28;20031;-70
2022/08/27 02:54:34;;;;;;;1.55;0.45;;;22.20;99.90;;;;;;4992726;28;20035;-69
2022/08/27 02:56:59;;;;;;;0.40;0.38;;;22.30;99.90;;;;;;4992847;28;20030;-69
2022/08/27 02:59:25;;;;;;;0.47;0.47;;;22.30;99.90;;;;;;4975249;28;20027;-70
2022/08/27 03:01:51;;;;;;;0.68;0.68;;;22.30;99.90;;;;;;4991441;28;20560;-69
2022/08/27 03:04:18;;;;;;;0.98;0.90;;;22.30;99.90;;;;;;4990608;28;20026;-69
2022/08/27 03:06:46;;;;;;;3.33;1.00;;;22.30;99.90;;;;;;5002930;28;20022;-70
2022/08/27 03:09:12;;;;;;;0.85;0.60;;;22.30;99.90;;;;;;4974812;28;20022;-70
2022/08/27 03:11:38;;;;;;;1.20;0.77;;;22.10;99.90;;;;;;4971715;28;20034;-69
2022/08/27 03:14:04;;;;;;;1.27;0.70;;;22.10;99.90;;;;;;4955544;28;20471;-70
2022/08/27 03:16:34;;;;;;;0.65;0.60;;;22.10;99.90;;;;;;4989193;28;20076;-69
2022/08/27 03:19:00;;;;;;;0.00;0.00;;;22.20;99.90;;;;;;4972851;28;20234;-70
2022/08/27 03:21:26;;;;;;;0.77;0.75;;;22.10;99.90;;;;;;4972685;28;20602;-69
2022/08/27 03:23:52;;;;;;;0.28;0.28;;;22.10;99.90;;;;;;4972515;28;20117;-69
2022/08/27 03:26:19;;;;;;;6.55;1.75;;;22.10;99.90;;;;;;4954804;28;20133;-70
2022/08/27 03:28:45;;;;;;;0.60;0.50;;;22.20;99.90;;;;;;4972280;28;20065;-69
2022/08/27 03:31:25;;;;;;;0.43;0.43;;;22.10;99.90;;;;;;4972638;28;20027;-69
2022/08/27 03:33:55;;;;;;;2.23;0.93;;;22.20;99.90;;;;;;4955762;28;20060;-70
2022/08/27 03:36:21;;;;;;;6.18;0.75;;;22.20;99.90;;;;;;4959102;28;20293;-69
2022/08/27 03:38:47;;;;;;;1.02;0.95;;;22.10;99.90;;;;;;4972891;28;20038;-69
2022/08/27 03:41:14;;;;;;;0.22;0.22;;;22.00;99.90;;;;;;4972706;28;20034;-68
2022/08/27 03:43:40;;;;;;;0.20;0.20;;;21.90;99.90;;;;;;4972859;28;20408;-70
2022/08/27 03:46:07;;;;;;;0.63;0.50;;;21.80;99.90;;;;;;4991455;28;20037;-69
2022/08/27 03:48:33;;;;;;;0.70;0.65;;;21.80;99.90;;;;;;4990519;28;20045;-69
2022/08/27 03:51:06;;;;;;;0.80;0.68;;;21.80;99.90;;;;;;4991628;28;20116;-69
2022/08/27 03:53:33;;;;;;;3.60;0.80;;;21.90;99.90;;;;;;4974486;28;20033;-69
2022/08/27 03:55:59;;;;;;;0.85;0.45;;;21.90;99.90;;;;;;4974399;28;20042;-70
2022/08/27 03:58:25;;;;;;;0.50;0.50;;;22.00;99.90;;;;;;4973929;28;20030;-70
2022/08/27 04:00:50;;;;;;;0.20;0.20;;;22.00;99.90;;;;;;4991492;28;20614;-69
2022/08/27 04:03:16;;;;;;;0.40;0.40;;;22.00;99.90;;;;;;4973649;28;20037;-70
2022/08/27 04:05:42;;;;;;;0.38;0.38;;;22.20;99.90;;;;;;4991520;28;20064;-70
2022/08/27 04:08:09;;;;;;;2.38;0.88;;;22.20;99.90;;;;;;4974245;28;20042;-70
2022/08/27 04:10:39;;;;;;;1.02;0.50;;;22.10;99.90;;;;;;4986661;28;20031;-70
2022/08/27 04:13:05;;;;;;;1.35;1.25;;;22.10;99.90;;;;;;4954800;28;20035;-70
2022/08/27 04:15:31;;;;;;;0.60;0.47;;;22.10;99.90;;;;;;4981732;28;20113;-69
2022/08/27 04:17:57;;;;;;;0.68;0.60;;;22.10;99.90;;;;;;4991123;28;20117;-70
2022/08/27 04:20:23;;;;;;;1.17;0.63;;;22.10;99.90;;;;;;4973710;28;20045;-70
2022/08/27 04:22:49;;;;;;;1.85;0.52;;;22.20;99.90;;;;;;4990924;28;20125;-69
2022/08/27 04:25:15;;;;;;;0.60;0.50;;;22.20;99.90;;;;;;4973810;28;20105;-70
2022/08/27 04:27:42;;;;;;;1.13;0.52;;;22.20;99.90;;;;;;4973912;28;20105;-69
2022/08/27 04:30:09;;;;;;;0.77;0.55;;;22.20;99.90;;;;;;4974038;28;20494;-70
2022/08/27 04:32:35;;;;;;;0.82;0.73;;;22.20;99.90;;;;;;4991145;28;20482;-70
2022/08/27 04:35:01;;;;;;;0.38;0.38;;;22.20;99.90;;;;;;4990934;28;20117;-70
2022/08/27 04:37:31;;;;;;;1.75;1.13;;;22.20;99.90;;;;;;4974250;28;20562;-70
2022/08/27 04:39:58;;;;;;;0.40;0.40;;;22.20;99.90;;;;;;4995779;28;20399;-68
2022/08/27 04:42:24;;;;;;;0.77;0.73;;;22.10;99.90;;;;;;4994958;28;20039;-68
2022/08/27 04:44:52;;;;;;;0.95;0.77;;;22.10;99.90;;;;;;4995081;28;20105;-68
2022/08/27 04:47:19;;;;;;;0.15;0.15;;;22.10;99.90;;;;;;4977878;28;20062;-69
2022/08/27 04:49:45;;;;;;;0.10;0.10;;;22.10;99.90;;;;;;4977174;28;20052;-68
2022/08/27 04:52:11;;;;;;;1.55;0.35;;;22.20;99.90;;;;;;4977671;28;20034;-68
2022/08/27 04:54:37;;;;;;;0.55;0.15;;;22.20;99.90;;;;;;4994807;28;20461;-69
2022/08/27 04:57:05;;;;;;;0.25;0.25;;;22.30;99.90;;;;;;4977429;28;20409;-69
2022/08/27 04:59:33;;;;;;;0.25;0.20;;;22.40;99.90;;;;;;4994602;28;20069;-69
2022/08/27 05:02:01;;;;;;;0.35;0.35;;;22.30;99.90;;;;;;4977154;28;20058;-68
2022/08/27 05:04:28;;;;;;;0.80;0.65;;;22.30;99.90;;;;;;4994438;28;20061;-69
2022/08/27 05:06:54;;;;;;;0.93;0.88;;;22.30;99.90;;;;;;4977293;28;20066;-69
2022/08/27 05:09:20;;;;;;;21.10;0.73;;;22.20;99.90;;;;;;4994399;28;20050;-69
2022/08/27 05:11:46;;;;;;;1.23;0.88;;;22.20;99.90;;;;;;4979926;28;20061;-69
2022/08/27 05:14:14;;;;;;;8.98;1.38;;;22.20;99.90;;;;;;4975168;28;20067;-69
2022/08/27 05:16:41;;;;;;;0.03;0.03;;;22.20;99.90;;;;;;4992680;28;20036;-69
2022/08/27 05:19:13;;;;;;;2.80;1.17;;;22.20;99.90;;;;;;4994009;28;20022;-69
2022/08/27 05:21:46;;;;;;;0.30;0.30;;;22.10;99.90;;;;;;4977218;28;20105;-68
2022/08/27 05:24:13;;;;;;;0.77;0.63;;;22.20;99.90;;;;;;4977132;28;20034;-69
2022/08/27 05:26:39;;;;;;;0.63;0.63;;;22.30;99.90;;;;;;4976743;28;20494;-68
2022/08/27 05:29:05;;;;;;;0.45;0.45;;;22.20;99.90;;;;;;4976772;28;20057;-69
2022/08/27 05:31:32;;;;;;;0.43;0.43;;;22.20;99.90;;;;;;4976802;28;20089;-68
2022/08/27 05:34:00;;;;;;;1.70;0.90;;;22.10;99.90;;;;;;4993612;28;20506;-69
2022/08/27 05:36:29;;;;;;;1.42;0.85;;;22.00;99.90;;;;;;4976491;28;20042;-69
2022/08/27 05:38:58;;;;;;;1.17;1.10;;;22.00;99.90;;;;;;4976222;28;20042;-69
2022/08/27 05:41:28;;;;;;;0.73;0.55;;;22.00;99.90;;;;;;4976258;28;20026;-69
2022/08/27 05:43:57;;;;;;;0.80;0.77;;;22.00;99.90;;;;;;4976416;28;20418;-69
2022/08/27 05:46:25;;;;;;;0.20;0.20;;;22.00;99.90;;;;;;4993798;28;20606;-68
2022/08/27 05:48:55;;;;;;;1.15;0.80;;;22.20;99.90;;;;;;4976037;28;20062;-68
2022/08/27 05:51:30;;;;;;;2.63;0.73;;;22.30;99.90;;;;;;4976470;28;20030;-68
2022/08/27 05:54:00;;;;;;;1.25;0.90;;;22.40;99.90;;;;;;4975488;28;20030;-68
2022/08/27 05:56:29;;;;;;;0.93;0.85;;;22.50;99.90;;;;;;4991629;28;20550;-68
2022/08/27 06:01:49;;;;;;;0.73;0.73;;;22.50;99.90;;;;;;4981290;28;20109;-68
2022/08/27 06:04:16;;;;;;;0.30;0.30;;;22.50;99.90;;;;;;4991518;28;20060;-69
2022/08/27 06:06:43;;;;;;;0.63;0.40;;;22.40;99.90;;;;;;4974847;28;20521;-68
2022/08/27 06:09:13;;;;;;;0.50;0.50;;;22.30;99.90;;;;;;4975750;28;20121;-68
2022/08/27 06:11:39;;;;;;;1.23;0.90;;;22.20;99.90;;;;;;4993368;28;20486;-68
2022/08/27 06:14:07;;;;;;;1.20;0.98;;;22.20;99.90;;;;;;4975828;28;20034;-68
2022/08/27 06:16:34;;;;;;;0.75;0.73;;;22.30;99.90;;;;;;4976246;28;20027;-68
2022/08/27 06:19:00;;;;;;;1.30;0.88;;;22.20;99.90;;;;;;4975700;28;20030;-68
2022/08/27 06:21:26;;;;;;;4.07;0.90;;;22.20;99.90;;;;;;4993503;28;20367;-68
2022/08/27 06:23:53;;;;;;;1.10;1.02;;;22.20;99.90;;;;;;4992936;28;20108;-68
2022/08/27 06:26:22;;;;;;;1.35;1.13;;;22.20;99.90;;;;;;4993395;28;20018;-68
2022/08/27 06:28:49;;;;;;;0.32;0.32;;;22.00;99.90;;;;;;4993052;28;20037;-69
2022/08/27 06:31:24;;;;;;;0.38;0.38;;;21.90;99.90;;;;;;4983600;28;20148;-72
2022/08/27 06:33:51;;;;;;;1.10;0.60;;;22.00;99.90;;;;;;4994938;28;20038;-72
2022/08/27 06:36:23;;;;;;;0.70;0.70;;;22.10;99.90;;;;;;5003748;28;20638;-72
2022/08/27 06:38:49;;;;;;;0.55;0.50;;;22.20;99.90;;;;;;4992301;28;20077;-71
2022/08/27 06:41:20;;;;;;;1.38;1.05;;;22.40;99.90;;;;;;4992335;28;20105;-71
2022/08/27 06:43:46;;;;;;;1.33;1.17;;;22.50;99.90;;;;;;4992301;28;20060;-71
2022/08/27 06:46:16;;;;;;;1.02;0.95;;;22.60;99.90;;;;;;4992373;28;20470;-72
2022/08/27 06:48:46;;;;;;;3.55;1.67;;;22.70;99.90;;;;;;4992400;28;20447;-71
2022/08/27 06:51:17;;;;;;;0.43;0.40;;;22.60;99.90;;;;;;4992651;28;20683;-71
2022/08/27 06:53:45;;;;;;;0.70;0.60;;;22.60;99.90;;;;;;4973341;28;20501;-68
2022/08/27 06:56:12;;;;;;;12.57;1.05;;;22.70;99.90;;;;;;4991633;28;20034;-69
2022/08/27 06:58:39;;;;;;;1.25;0.85;;;22.70;99.90;;;;;;4990546;28;20034;-70
2022/08/27 07:01:15;;;;;;;3.20;1.50;;;22.60;99.90;;;;;;4985342;28;20117;-70
2022/08/27 07:03:42;;;;;;;3.28;0.65;;;22.80;99.90;;;;;;5011770;28;20405;-71
2022/08/27 07:06:10;;;;;;;2.42;1.13;;;22.80;99.90;;;;;;4994464;28;20099;-72
2022/08/27 07:08:36;;;;;;;0.73;0.40;;;23.00;99.90;;;;;;5011488;28;20053;-71
2022/08/27 07:11:02;;;;;;;0.52;0.52;;;23.00;99.90;;;;;;5003381;28;20387;-72
2022/08/27 07:13:28;;;;;;;3.15;1.05;;;23.00;99.90;;;;;;4991891;28;20125;-72
2022/08/27 07:15:55;;;;;;;3.63;1.42;;;23.10;99.90;;;;;;4992171;28;20068;-69
2022/08/27 07:18:22;;;;;;;0.10;0.10;;;23.20;99.90;;;;;;4991776;28;20690;-70
2022/08/27 07:20:53;;;;;;;0.52;0.52;;;23.20;99.90;;;;;;4974300;28;20109;-68
2022/08/27 07:23:18;;;;;;;1.98;0.65;;;23.20;99.90;;;;;;4991893;28;20578;-69
2022/08/27 07:25:44;;;;;;;8.40;1.13;;;23.20;99.90;;;;;;4979243;28;20105;-68
2022/08/27 07:28:10;;;;;;;0.30;0.30;;;23.20;99.90;;;;;;4974417;28;20489;-69
2022/08/27 07:30:36;;;;;;;1.65;1.10;;;23.20;99.90;;;;;;4996116;28;20065;-68
2022/08/27 07:33:03;;;;;;;0.85;0.80;;;23.30;99.90;;;;;;5006324;28;20045;-69
2022/08/27 07:35:30;;;;;;;0.55;0.47;;;23.50;99.90;;;;;;4991461;28;20494;-69
2022/08/27 07:37:56;;;;;;;0.50;0.45;;;23.60;99.90;;;;;;4974334;28;20038;-68
2022/08/27 07:40:23;;;;;;;0.70;0.70;;;23.60;99.90;;;;;;4991331;28;20057;-68
2022/08/27 07:45:33;;;;;;;0.10;0.10;;;23.60;99.90;;;;;;4987247;28;20033;-70
2022/08/27 07:47:59;;;;;;;15.63;1.30;;;23.60;99.90;;;;;;4991189;28;20374;-69
2022/08/27 07:50:25;;;;;;;10.45;0.95;;;23.60;99.90;;;;;;4991236;28;20105;-69
2022/08/27 07:52:52;;;;;;;0.43;0.43;;;23.70;99.90;;;;;;4973743;28;20403;-68
2022/08/27 07:55:18;;;;;;;0.20;0.20;;;23.80;99.90;;;;;;4978479;28;20195;-68
2022/08/27 07:57:46;;;;;;;0.10;0.10;;;23.90;99.90;;;;;;4954445;28;20054;-69
2022/08/27 08:00:13;;;;;;;2.15;0.70;;;24.00;99.90;;;;;;4984262;28;20023;-68
2022/08/27 08:02:41;;;;;;;1.50;1.33;;;23.90;99.90;;;;;;4987949;28;20113;-69
2022/08/27 08:05:08;;;;;;;0.20;0.20;;;23.90;99.90;;;;;;4994493;28;20531;-68
2022/08/27 08:07:37;;;;;;;1.48;1.10;;;23.60;99.90;;;;;;4991037;28;20050;-67
2022/08/27 08:10:07;;;;;;;1.02;0.75;;;23.80;99.90;;;;;;4990611;28;20052;-67
2022/08/27 08:12:38;;;;;;;2.53;1.30;;;23.80;99.90;;;;;;4981481;28;20129;-67
2022/08/27 08:15:09;;;;;;;0.73;0.20;;;23.70;99.90;;;;;;4991435;28;20084;-66
2022/08/27 08:17:36;;;;;;;1.35;1.25;;;23.70;99.90;;;;;;5006471;23;20049;-68
2022/08/27 08:20:06;;;;;;;0.15;0.15;;;23.80;99.90;;;;;;5008433;28;20489;-68
2022/08/27 08:22:32;;;;;;;2.42;1.27;;;23.80;99.90;;;;;;4992609;28;20046;-68
2022/08/27 08:24:59;;;;;;;2.40;0.95;;;23.60;99.90;;;;;;4998601;28;20108;-69
2022/08/27 08:27:24;;;;;;;0.25;0.25;;;23.80;99.90;;;;;;4986553;28;20378;-68
2022/08/27 08:29:50;;;;;;;0.90;0.65;;;23.80;99.90;;;;;;4973150;28;20037;-68
2022/08/27 08:32:16;;;;;;;3.05;0.73;;;23.80;99.90;;;;;;4970117;28;20031;-68
2022/08/27 08:34:43;;;;;;;2.33;0.93;;;23.80;99.90;;;;;;4989726;28;20125;-69
2022/08/27 08:37:10;;;;;;;2.50;0.90;;;23.80;99.90;;;;;;4990034;28;20030;-68
2022/08/27 08:39:36;;;;;;;0.30;0.30;;;23.90;99.90;;;;;;4989592;28;20030;-68
2022/08/27 08:42:06;;;;;;;1.13;1.10;;;23.80;99.90;;;;;;4989706;28;20084;-67
2022/08/27 08:44:48;;;;;;;1.27;0.70;;;23.80;99.90;;;;;;4990630;28;20113;-67
2022/08/27 08:47:20;;;;;;;0.35;0.35;;;23.80;99.90;;;;;;4989773;28;20050;-67
2022/08/27 08:50:09;;;;;;;1.35;0.60;;;23.60;99.90;;;;;;4988964;28;20022;-67
2022/08/27 08:53:01;;;;;;;0.85;0.85;;;23.40;99.90;;;;;;4989995;28;20026;-67
2022/08/27 08:55:41;;;;;;;0.55;0.43;;;23.20;99.90;;;;;;4974813;28;20046;-68
2022/08/27 08:58:17;;;;;;;;;;;23.10;99.90;;;;;;4970884;28;20038;-67
2022/08/27 09:00:47;;;;;;;1.58;0.82;;;23.10;99.90;;;;;;4970817;28;19914;-67
2022/08/27 09:03:15;;;;;;;2.60;1.63;;;23.10;99.90;;;;;;4969293;28;20035;-67
2022/08/27 09:05:52;;;;;;;3.03;0.73;;;23.00;99.90;;;;;;4969925;28;20085;-67
2022/08/27 09:08:41;;;;;;;2.35;1.80;;;23.00;99.90;;;;;;4987171;28;20343;-67
2022/08/27 09:11:28;;;;;;;0.82;0.82;;;23.10;99.90;;;;;;4964355;28;20031;-67
2022/08/27 09:14:36;;;;;;;1.85;1.13;;;23.10;99.90;;;;;;4971165;28;20082;-67
2022/08/27 09:17:03;;;;;;;21.35;0.52;;;23.20;99.90;;;;;;4956199;28;20503;-68
2022/08/27 09:19:29;;;;;;;8.38;0.77;;;23.20;99.90;;;;;;4953774;28;20137;-67
2022/08/27 09:22:23;;;;;;;0.60;0.60;;;23.20;99.90;;;;;;4971481;28;20125;-67
2022/08/27 09:25:04;;;;;;;2.65;1.83;;;23.20;99.90;;;;;;4973329;28;20058;-67
2022/08/27 09:27:32;;;;;;;0.70;0.60;;;23.20;99.90;;;;;;4958763;28;20026;-68
2022/08/27 09:30:08;;;;;;;0.35;0.35;;;23.20;99.90;;;;;;4974691;28;20058;-67
2022/08/27 09:32:34;;;;;;;0.50;0.50;;;23.20;99.90;;;;;;4974629;28;20074;-67
2022/08/27 09:35:06;;;;;;;0.50;0.50;;;23.20;99.90;;;;;;4974661;28;20053;-67
2022/08/27 09:37:43;;;;;;;1.35;0.85;;;23.40;99.90;;;;;;4957585;28;20027;-68
2022/08/27 09:40:36;;;;;;;0.65;0.65;;;23.40;99.90;;;;;;4957335;28;20090;-67
2022/08/27 09:43:25;;;;;;;0.50;0.43;;;23.50;99.90;;;;;;4974338;28;20035;-67
2022/08/27 09:45:55;;;;;;;5.05;1.85;;;23.50;99.90;;;;;;4974785;28;20030;-67
2022/08/27 09:48:36;;;;;;;0.33;0.33;;;23.70;99.90;;;;;;4957582;28;20158;-68
2022/08/27 09:51:23;;;;;;;0.08;0.08;;;23.70;99.90;;;;;;4942253;28;20875;-68
2022/08/27 09:54:00;;;;;;;0.45;0.32;;;23.70;99.90;;;;;;4974040;28;20038;-67
2022/08/27 09:56:35;;;;;;;0.28;0.28;;;23.80;99.90;;;;;;4957442;28;20094;-67
2022/08/27 09:59:11;;;;;;;0.35;0.32;;;23.90;99.90;;;;;;4956996;28;20042;-68
2022/08/27 10:01:51;;;;;;;0.75;0.50;;;24.00;99.90;;;;;;4957406;28;20038;-68
2022/08/27 10:04:27;;;;;;;0.47;0.40;;;23.90;99.90;;;;;;4973748;28;20053;-68
2022/08/27 10:06:53;;;;;;;0.52;0.50;;;23.80;99.90;;;;;;4957372;28;20110;-68
2022/08/27 10:09:29;;;;;;;0.45;0.45;;;23.90;99.90;;;;;;4956168;28;20138;-65
2022/08/27 10:12:31;;;;;;;0.15;0.15;;;23.90;99.90;;;;;;4972822;28;20054;-66
2022/08/27 10:14:59;;;;;;;0.30;0.30;;;24.30;99.90;;;;;;4976793;28;20066;-67
2022/08/27 10:17:46;;;;;;;1.27;0.75;;;24.50;99.90;;;;;;4992301;28;20027;-67
2022/08/27 10:20:48;;;;;;;0.70;0.70;;;24.80;99.90;;;;;;4993094;28;20368;-67
2022/08/27 10:24:00;;;;;;;1.45;1.10;;;25.00;99.90;;;;;;4991890;28;20030;-68
2022/08/27 10:26:50;;;;;;;0.35;0.35;;;25.00;99.90;;;;;;4993258;28;20038;-70
2022/08/27 10:30:06;;;;;;;27.57;1.27;;;25.00;99.90;;;;;;4991795;28;20022;-70
2022/08/27 10:32:55;;;;;;;1.55;1.38;;;25.10;99.90;;;;;;4990357;28;20125;-68
2022/08/27 10:35:25;;;;;;;1.00;0.57;;;25.10;99.90;;;;;;4986310;28;20042;-70
2022/08/27 10:38:22;;;;;;;0.88;0.85;;;25.10;99.90;;;;;;4991780;28;20042;-69
2022/08/27 10:41:08;;;;;;;4.38;0.55;;;25.10;99.90;;;;;;4992660;28;20042;-68
2022/08/27 10:44:06;;;;;;;0.95;0.60;;;25.10;99.90;;;;;;4990157;28;20042;-69
2022/08/27 10:46:58;;;;;;;1.27;0.82;;;25.40;99.90;;;;;;4992909;28;20030;-69
2022/08/27 10:50:00;;;;;;;0.40;0.40;;;25.10;99.90;;;;;;4992590;28;20172;-68
2022/08/27 10:52:41;;;;;;;1.55;0.57;;;25.00;99.90;;;;;;4991638;28;20045;-69
2022/08/27 10:55:16;;;;;;;0.30;0.30;;;25.30;99.90;;;;;;4979578;28;20035;-69
2022/08/27 10:58:15;;;;;;;2.13;0.90;;;25.50;99.90;;;;;;4973410;28;20076;-67
2022/08/27 11:00:59;;;;;;;0.75;0.40;;;25.10;99.90;;;;;;4975667;28;20030;-70
2022/08/27 11:03:36;;;;;;;0.50;0.40;;;25.30;99.90;;;;;;4994001;28;20056;-71
2022/08/27 11:06:31;;;;;;;0.30;0.30;;;25.30;99.90;;;;;;4975421;28;20027;-68
2022/08/27 11:09:06;;;;;;;0.32;0.30;;;25.40;99.90;;;;;;4976663;28;20110;-68
2022/08/27 11:12:05;;;;;;;0.10;0.10;;;25.70;99.90;;;;;;4963191;28;20553;-68
2022/08/27 11:14:41;;;;;;;1.90;0.77;;;25.90;99.90;;;;;;4971672;28;20030;-67
2022/08/27 11:17:17;;;;;;;0.10;0.10;;;25.80;99.90;;;;;;4972844;28;20105;-69
2022/08/27 11:20:15;;;;;;;24.95;1.90;;;26.00;99.90;;;;;;4971332;28;20042;-68
2022/08/27 11:22:52;;;;;;;1.02;0.77;;;26.30;99.90;;;;;;4971569;28;20027;-68
2022/08/27 11:25:21;;;;;;;0.30;0.28;;;26.60;99.90;;;;;;4970505;28;20026;-68
2022/08/27 11:27:52;;;;;;;1.02;0.93;;;26.40;99.90;;;;;;4972183;28;20109;-68
2022/08/27 11:30:28;;;;;;;0.93;0.85;;;26.10;99.90;;;;;;4955168;28;20031;-68
2022/08/27 11:33:23;;;;;;;0.45;0.35;;;25.90;99.90;;;;;;4970974;28;20395;-68
2022/08/27 11:36:13;;;;;;;2.53;1.80;;;25.90;99.90;;;;;;4972390;28;20395;-68
2022/08/27 11:39:16;;;;;;;8.57;0.98;;;26.10;99.90;;;;;;4972569;28;20035;-68
2022/08/27 11:42:00;;;;;;;0.20;0.20;;;25.90;99.90;;;;;;4963881;28;20043;-68
2022/08/27 11:44:27;;;;;;;1.20;0.95;;;25.90;99.90;;;;;;4972682;28;20551;-68
2022/08/27 11:47:20;;;;;;;0.45;0.45;;;25.60;99.90;;;;;;4970814;28;20047;-68
2022/08/27 11:49:55;;;;;;;0.73;0.70;;;25.50;99.90;;;;;;4971075;28;20038;-69
2022/08/27 11:52:28;;;;;;;1.85;1.17;;;25.10;99.90;;;;;;4971032;28;20031;-68
2022/08/27 11:55:25;;;;;;;5.85;0.52;;;25.10;99.90;;;;;;4972446;28;20059;-69
2022/08/27 11:58:27;;;;;;;0.35;0.35;;;25.10;99.90;;;;;;4955312;28;20054;-69
2022/08/27 12:00:53;;;;;;;1.00;0.75;;;25.20;99.90;;;;;;4954621;28;20491;-67
2022/08/27 12:03:31;;;;;;;1.25;0.98;;;25.40;99.90;;;;;;4972441;28;20089;-66
2022/08/27 12:05:57;;;;;;;5.57;0.98;;;25.60;99.90;;;;;;4939272;28;20510;-67
2022/08/27 12:08:26;;;;;;;2.35;0.75;;;25.60;99.90;;;;;;4972087;28;20074;-68
2022/08/27 12:11:17;;;;;;;1.38;0.90;;;25.60;99.90;;;;;;4978817;28;20030;-68
2022/08/27 12:14:13;;;;;;;1.10;0.88;;;25.60;99.90;;;;;;4991270;28;20042;-68
2022/08/27 12:17:21;;;;;;;0.63;0.63;;;25.60;99.90;;;;;;4990437;28;20088;-73
2022/08/27 12:20:17;;;;;;;1.63;0.43;;;25.60;99.90;;;;;;4990195;28;20508;-72
2022/08/27 12:23:41;;;;;;;0.22;0.22;;;25.30;99.90;;;;;;4991941;28;20035;-72
2022/08/27 12:26:52;;;;;;;0.40;0.40;;;25.40;99.90;;;;;;4926578;28;20035;-72
2022/08/27 12:29:28;;;;;;;;;;;25.40;99.90;;;;;;4955971;28;20046;-73
2022/08/27 12:32:17;;;;;;;1.30;0.80;;;25.60;99.90;;;;;;4970487;28;19917;-72
2022/08/27 12:34:58;;;;;;;0.35;0.35;;;25.70;99.90;;;;;;4971812;28;20043;-71
2022/08/27 12:37:29;;;;;;;0.20;0.20;;;25.80;99.90;;;;;;4970735;28;20041;-73
2022/08/27 12:40:00;;;;;;;6.43;2.42;;;25.80;99.90;;;;;;4971778;28;20079;-72
2022/08/27 12:42:26;;;;;;;1.65;1.08;;;25.70;99.90;;;;;;4970626;28;20122;-72
2022/08/27 12:44:56;;;;;;;0.17;0.17;;;25.70;99.90;;;;;;4971831;28;20102;-72
2022/08/27 12:47:23;;;;;;;1.65;1.23;;;25.60;99.90;;;;;;4970293;28;20447;-73
2022/08/27 12:49:57;;;;;;;1.00;0.75;;;25.70;99.90;;;;;;4971361;28;20037;-72
2022/08/27 12:52:43;;;;;;;9.32;0.80;;;25.80;99.90;;;;;;4970282;28;20050;-72
2022/08/27 12:55:36;;;;;;;2.10;1.08;;;25.90;99.90;;;;;;4971886;28;20035;-72
2022/08/27 12:58:44;;;;;;;0.30;0.30;;;26.00;99.90;;;;;;4971447;28;20035;-70
2022/08/27 13:01:58;;;;;;;2.65;1.00;;;26.10;99.90;;;;;;4975510;28;20542;-71
2022/08/27 13:04:29;;;;;;;1.30;0.82;;;26.20;99.90;;;;;;4960309;28;20043;-71
2022/08/27 13:06:57;;;;;;;0.40;0.35;;;26.20;99.90;;;;;;4978173;28;20516;-72
2022/08/27 13:09:32;;;;;;;0.40;0.40;;;26.00;99.90;;;;;;4976990;28;20501;-73
2022/08/27 13:12:02;;;;;;;0.93;0.52;;;26.20;99.90;;;;;;4977087;28;20056;-72
2022/08/27 13:14:37;;;;;;;2.58;1.05;;;26.30;99.90;;;;;;4994573;28;20110;-72
2022/08/27 13:17:09;;;;;;;4.25;1.58;;;26.40;99.90;;;;;;4994391;28;20034;-71
2022/08/27 13:20:00;;;;;;;0.10;0.10;;;26.40;99.80;;;;;;4992919;28;20082;-72
2022/08/27 13:22:37;;;;;;;1.20;0.80;;;26.40;99.70;;;;;;4994188;28;20026;-70
2022/08/27 13:25:05;;;;;;;2.10;0.93;;;26.50;99.90;;;;;;4982199;28;20122;-71